Time;durP1;ratioP1;P1;durP2;ratioP2;P2;SDS_P1;SDS_P2;PMS_P1;PMS_P2;Temp;Humidity;BMP_temperature;BMP_pressure;BME280_temperature;BME280_humidity;BME280_pressure;Samples;Min_cycle;Max_cycle;Signal;HPM_P1;HPM_P2
2022/07/28 11:52:41;;;;;;;1.55;0.70;;;21.60;63.00;;;;;;6212415;22;20238;-88
2022/07/28 11:55:09;;;;;;;2.83;0.68;;;21.60;63.00;;;;;;6197222;23;20532;-91
2022/07/28 11:57:50;;;;;;;0.65;0.50;;;21.60;63.40;;;;;;6194210;23;20423;-90
2022/07/28 12:00:34;;;;;;;2.17;0.60;;;21.70;63.20;;;;;;6195801;23;20008;-89
2022/07/28 12:03:04;;;;;;;2.83;0.50;;;21.70;63.70;;;;;;6195816;23;20095;-88
2022/07/28 12:05:30;;;;;;;1.05;0.70;;;21.80;63.20;;;;;;6170325;23;20007;-88
2022/07/28 12:07:57;;;;;;;1.50;0.50;;;21.80;63.70;;;;;;6195562;23;20001;-89
2022/07/28 12:10:31;;;;;;;2.30;0.75;;;21.80;64.10;;;;;;6195104;23;20001;-90
2022/07/28 12:13:06;;;;;;;1.90;0.70;;;21.90;63.60;;;;;;6218382;23;20091;-90
2022/07/28 12:15:33;;;;;;;1.40;0.73;;;22.00;62.60;;;;;;6195062;23;20055;-88
2022/07/28 12:18:00;;;;;;;1.48;0.75;;;22.00;62.00;;;;;;6221806;23;20051;-88
2022/07/28 12:20:33;;;;;;;2.10;0.70;;;22.10;61.90;;;;;;6226195;23;20016;-89
2022/07/28 12:23:02;;;;;;;1.15;0.70;;;22.20;62.30;;;;;;6193799;23;20043;-88
2022/07/28 12:25:28;;;;;;;2.75;0.60;;;22.20;62.50;;;;;;6194183;23;20266;-87
2022/07/28 12:27:54;;;;;;;3.35;0.70;;;22.20;62.00;;;;;;6193964;23;20011;-89
2022/07/28 12:30:24;;;;;;;2.33;0.80;;;22.20;61.70;;;;;;6194436;23;20076;-87
2022/07/28 12:32:51;;;;;;;1.93;0.60;;;22.20;61.10;;;;;;6191952;23;20070;-85
2022/07/28 12:35:17;;;;;;;1.70;0.63;;;22.20;61.10;;;;;;6194780;23;20461;-86
2022/07/28 12:37:47;;;;;;;1.50;0.60;;;22.20;61.30;;;;;;6194228;23;20438;-87
2022/07/28 12:40:17;;;;;;;3.43;0.70;;;22.30;61.80;;;;;;6220229;23;19996;-86
2022/07/28 12:42:44;;;;;;;1.90;0.60;;;22.30;61.70;;;;;;6193160;23;20338;-87
2022/07/28 13:07:47;;;;;;;;;;;;;;;;;;;;;
2022/07/28 13:10:42;;;;;;;;;;;;;;;;;;;;;
2022/07/28 13:21:02;;;;;;;;;;;;;;;;;;;;;
2022/07/28 13:31:30;;;;;;;1.38;0.60;;;22.40;61.40;;;;;;5825129;24;20114;-92
2022/07/28 13:41:05;;;;;;;;;;;;;;;;;;;;;
2022/07/28 13:51:09;;;;;;;2.45;0.70;;;22.70;60.50;;;;;;5930296;24;20099;-89
2022/07/28 13:54:13;;;;;;;3.05;0.82;;;22.70;60.80;;;;;;5887831;24;20480;-90
2022/07/28 14:00:40;;;;;;;1.55;0.68;;;22.80;60.80;;;;;;5878877;24;20137;-90
2022/07/28 14:29:11;;;;;;;;;;;;;;;;;;;;;
2022/07/28 14:32:39;;;;;;;;;;;;;;;;;;;;;
2022/07/28 14:50:19;;;;;;;3.97;1.13;;;23.30;60.20;;;;;;6062733;23;20002;-88
2022/07/28 14:53:35;;;;;;;;;;;;;;;;;;;;;
2022/07/28 14:56:40;;;;;;;;;;;;;;;;;;;;;
2022/07/28 15:02:51;;;;;;;1.73;0.60;;;23.50;59.70;;;;;;6055188;23;20021;-83
2022/07/28 15:05:20;;;;;;;1.75;0.60;;;23.50;59.40;;;;;;6100458;23;20068;-83
2022/07/28 15:07:48;;;;;;;1.88;0.68;;;23.50;59.20;;;;;;6211476;23;20036;-82
2022/07/28 15:10:14;;;;;;;3.58;0.82;;;23.50;59.30;;;;;;6216208;23;20004;-84
2022/07/28 15:12:40;;;;;;;1.42;0.57;;;23.50;59.00;;;;;;6215833;23;20004;-83
2022/07/28 15:15:07;;;;;;;1.00;0.70;;;23.50;59.00;;;;;;6218051;23;20015;-86
2022/07/28 15:17:36;;;;;;;0.88;0.60;;;23.40;58.30;;;;;;6220464;23;20028;-84
2022/07/28 15:20:06;;;;;;;1.92;0.82;;;23.40;58.70;;;;;;6198740;23;20017;-84
2022/07/28 15:22:32;;;;;;;1.50;0.73;;;23.40;58.90;;;;;;6214891;23;20012;-85
2022/07/28 15:24:58;;;;;;;2.10;0.90;;;23.40;59.10;;;;;;6242107;23;19992;-85
2022/07/28 15:27:26;;;;;;;2.30;0.93;;;23.40;59.20;;;;;;6215956;23;20019;-83
2022/07/28 15:29:53;;;;;;;1.58;0.70;;;23.50;59.20;;;;;;6215167;23;20011;-85
2022/07/28 15:32:19;;;;;;;1.65;0.75;;;23.50;59.30;;;;;;6210680;23;20028;-85
2022/07/28 15:34:45;;;;;;;1.98;0.88;;;23.50;58.90;;;;;;6198893;23;20005;-84
2022/07/28 15:37:11;;;;;;;2.33;0.93;;;23.50;59.00;;;;;;6191728;23;20074;-84
2022/07/28 15:39:48;;;;;;;2.28;0.80;;;23.60;58.90;;;;;;6191624;23;19997;-84
2022/07/28 15:42:14;;;;;;;1.05;0.70;;;23.60;58.70;;;;;;6190196;23;20070;-83
2022/07/28 15:44:48;;;;;;;1.35;0.70;;;23.60;58.80;;;;;;6214821;23;20009;-83
2022/07/28 15:47:13;;;;;;;2.25;1.00;;;23.60;59.00;;;;;;6190765;23;20434;-86
2022/07/28 15:49:40;;;;;;;2.88;0.80;;;23.70;59.00;;;;;;6216371;23;20015;-84
2022/07/28 15:52:06;;;;;;;1.52;0.75;;;23.80;59.20;;;;;;6191429;23;20018;-85
2022/07/28 15:54:31;;;;;;;1.83;0.80;;;23.80;59.40;;;;;;6214392;23;20087;-86
2022/07/28 15:57:00;;;;;;;1.83;0.90;;;23.80;59.00;;;;;;6215562;23;20007;-85
2022/07/28 15:59:28;;;;;;;3.50;1.10;;;23.90;58.60;;;;;;6242280;23;20027;-83
2022/07/28 16:01:55;;;;;;;1.70;1.08;;;23.80;58.60;;;;;;6218313;23;20000;-84
2022/07/28 16:04:22;;;;;;;3.05;1.13;;;23.90;58.80;;;;;;6192046;23;20012;-84
2022/07/28 16:09:32;;;;;;;1.67;0.90;;;23.80;58.60;;;;;;6218797;23;20050;-83
2022/07/28 16:11:58;;;;;;;3.97;1.20;;;23.80;58.90;;;;;;6193679;23;20004;-84
2022/07/28 16:14:24;;;;;;;1.10;0.70;;;23.80;59.00;;;;;;6192853;23;20007;-84
2022/07/28 16:16:50;;;;;;;1.83;0.90;;;23.70;58.80;;;;;;6218379;23;20381;-82
2022/07/28 16:19:29;;;;;;;2.42;0.93;;;23.70;58.90;;;;;;6194824;23;20005;-88
2022/07/28 16:21:56;;;;;;;4.18;1.33;;;23.70;59.50;;;;;;6218878;23;20467;-85
2022/07/28 16:24:22;;;;;;;3.55;1.40;;;23.70;59.90;;;;;;6242819;23;20016;-85
2022/07/28 16:26:50;;;;;;;1.50;0.77;;;23.70;59.20;;;;;;6217283;23;20031;-82
2022/07/28 16:29:17;;;;;;;1.92;1.20;;;23.70;58.60;;;;;;6219144;23;20005;-84
2022/07/28 16:31:43;;;;;;;2.30;1.02;;;23.60;58.70;;;;;;6219050;23;20008;-84
2022/07/28 16:34:19;;;;;;;2.13;0.77;;;23.60;58.50;;;;;;6217904;23;20035;-87
2022/07/28 16:36:44;;;;;;;1.58;0.80;;;23.50;58.50;;;;;;6190694;23;20005;-83
2022/07/28 16:39:11;;;;;;;2.47;1.05;;;23.50;59.90;;;;;;6239480;23;20024;-83
2022/07/28 16:41:37;;;;;;;2.50;0.95;;;23.50;60.30;;;;;;6214874;23;20426;-86
2022/07/28 16:44:03;;;;;;;2.08;0.80;;;23.40;59.90;;;;;;6190189;23;20095;-83
2022/07/28 16:46:29;;;;;;;3.08;0.90;;;23.40;59.80;;;;;;6215086;23;20004;-84
2022/07/28 16:48:54;;;;;;;2.85;1.00;;;23.40;60.60;;;;;;6240773;23;20388;-84
2022/07/28 16:51:20;;;;;;;1.63;1.02;;;23.40;60.80;;;;;;6214926;23;20016;-84
2022/07/28 16:53:46;;;;;;;2.13;0.98;;;23.40;60.90;;;;;;6217682;23;20001;-84
2022/07/28 16:56:16;;;;;;;3.45;1.17;;;23.30;60.10;;;;;;6215664;23;20062;-82
2022/07/28 16:58:46;;;;;;;3.05;1.10;;;23.30;60.20;;;;;;6241515;23;20498;-82
2022/07/28 17:01:16;;;;;;;1.40;1.00;;;23.30;59.90;;;;;;6216281;23;20015;-83
2022/07/28 17:03:41;;;;;;;2.40;1.00;;;23.30;60.10;;;;;;6215346;23;20008;-82
2022/07/28 17:06:08;;;;;;;2.30;1.05;;;23.20;60.40;;;;;;6191395;23;20009;-83
2022/07/28 17:08:35;;;;;;;2.88;0.90;;;23.20;60.30;;;;;;6216316;23;20431;-82
2022/07/28 17:11:01;;;;;;;1.27;0.80;;;23.20;60.20;;;;;;6216891;23;20108;-83
2022/07/28 17:13:28;;;;;;;2.45;0.88;;;23.20;60.10;;;;;;6191755;23;20340;-84
2022/07/28 17:15:55;;;;;;;1.40;0.70;;;23.10;60.10;;;;;;6217025;23;20001;-84
2022/07/28 17:18:21;;;;;;;1.48;0.90;;;23.00;60.40;;;;;;6217117;23;20001;-86
2022/07/28 17:20:47;;;;;;;1.95;0.90;;;23.00;60.50;;;;;;6243306;23;20000;-83
2022/07/28 17:23:13;;;;;;;2.75;1.00;;;23.00;60.60;;;;;;6216497;23;20071;-84
2022/07/28 17:25:40;;;;;;;2.03;0.80;;;23.00;60.50;;;;;;6215523;23;20001;-84
2022/07/28 17:28:06;;;;;;;2.00;0.88;;;22.90;60.70;;;;;;6241674;23;20005;-84
2022/07/28 17:30:33;;;;;;;2.95;1.13;;;22.90;60.80;;;;;;6217889;23;20027;-84
2022/07/28 17:33:00;;;;;;;1.98;0.73;;;22.90;61.50;;;;;;6217261;23;20009;-84
2022/07/28 17:35:27;;;;;;;1.65;0.70;;;22.90;61.50;;;;;;6217136;23;19996;-85
2022/07/28 17:37:54;;;;;;;1.73;0.82;;;22.80;61.30;;;;;;6216367;23;20007;-83
2022/07/28 17:40:20;;;;;;;2.28;1.00;;;22.80;61.40;;;;;;6217168;23;20518;-85
2022/07/28 17:42:50;;;;;;;4.97;1.40;;;22.80;61.20;;;;;;6216904;23;20033;-86
2022/07/28 17:45:18;;;;;;;4.07;2.03;;;22.80;61.40;;;;;;6218640;23;20001;-84
2022/07/28 17:47:44;;;;;;;3.80;1.90;;;22.70;61.60;;;;;;6243914;23;20067;-85
2022/07/28 17:50:11;;;;;;;7.32;2.20;;;22.70;61.90;;;;;;6194135;23;20004;-85
2022/07/28 17:52:42;;;;;;;10.90;2.97;;;22.70;62.00;;;;;;6218439;23;20005;-84
2022/07/28 17:57:53;;;;;;;5.43;3.15;;;22.60;61.80;;;;;;6221164;23;20011;-84
2022/07/28 18:00:19;;;;;;;5.03;2.17;;;22.60;61.80;;;;;;6193896;23;20004;-87
2022/07/28 18:02:48;;;;;;;8.95;2.22;;;22.60;61.80;;;;;;6219311;23;20008;-83
2022/07/28 18:05:16;;;;;;;2.90;1.38;;;22.50;62.00;;;;;;6242751;23;20036;-83
2022/07/28 18:07:49;;;;;;;2.70;1.00;;;22.50;61.40;;;;;;6218506;23;20071;-85
2022/07/28 18:10:19;;;;;;;2.40;1.10;;;22.50;61.30;;;;;;6219685;23;19997;-85
2022/07/28 18:12:48;;;;;;;3.05;0.90;;;22.40;61.40;;;;;;6217628;23;20036;-86
2022/07/28 18:15:13;;;;;;;1.33;0.70;;;22.40;61.40;;;;;;6217783;23;20107;-85
2022/07/28 18:17:44;;;;;;;2.63;0.68;;;22.30;61.40;;;;;;6218396;23;19996;-85
2022/07/28 18:20:13;;;;;;;1.23;0.55;;;22.30;61.30;;;;;;6216478;23;20020;-85
2022/07/28 18:22:39;;;;;;;1.25;0.65;;;22.20;61.30;;;;;;6216968;23;20032;-86
2022/07/28 18:25:08;;;;;;;2.08;0.90;;;22.20;61.40;;;;;;6217048;23;20008;-83
2022/07/28 18:27:42;;;;;;;2.95;0.98;;;22.20;61.70;;;;;;6216309;23;20135;-87
2022/07/28 18:30:09;;;;;;;1.55;0.70;;;22.10;61.70;;;;;;6187200;23;20011;-83
2022/07/28 18:32:35;;;;;;;2.83;1.02;;;22.10;61.70;;;;;;6217343;23;20087;-84
2022/07/28 18:35:01;;;;;;;1.80;0.90;;;22.10;61.80;;;;;;6217255;23;20008;-85
2022/07/28 18:37:26;;;;;;;2.80;0.82;;;22.00;62.00;;;;;;6217723;23;20005;-86
2022/07/28 18:39:54;;;;;;;2.78;0.90;;;22.00;62.20;;;;;;6242047;23;20039;-85
2022/07/28 18:42:21;;;;;;;1.45;0.70;;;21.90;62.30;;;;;;6191651;23;20005;-87
2022/07/28 18:44:47;;;;;;;3.10;0.80;;;21.90;62.60;;;;;;6217121;23;20430;-86
2022/07/28 18:47:38;;;;;;;2.65;0.80;;;21.90;62.60;;;;;;6192287;23;20058;-86
2022/07/28 18:50:05;;;;;;;1.60;0.90;;;21.80;62.60;;;;;;6217728;23;20007;-86
2022/07/28 18:52:39;;;;;;;1.45;0.80;;;21.80;62.60;;;;;;6218123;23;20015;-86
2022/07/28 18:55:09;;;;;;;1.80;1.00;;;21.80;62.60;;;;;;6217298;23;20023;-85
2022/07/28 18:57:44;;;;;;;2.38;0.90;;;21.80;62.80;;;;;;6217307;23;20008;-87
2022/07/28 19:00:11;;;;;;;1.80;0.80;;;21.80;62.80;;;;;;6218542;23;20004;-85
